createdAt,value
2023-05-16T00:01:58.867Z,93717.22
2023-05-16T00:04:26.595Z,93722.41
2023-05-16T00:06:53.427Z,93716.34
2023-05-16T00:09:20.212Z,93706.31
2023-05-16T00:11:48.437Z,93706.31
2023-05-16T00:14:15.327Z,93695.38
2023-05-16T00:16:42.329Z,93704.50
2023-05-16T00:19:10.580Z,93706.75
2023-05-16T00:21:37.407Z,93703.94
2023-05-16T00:24:05.206Z,93707.19
2023-05-16T00:26:32.012Z,93696.25
2023-05-16T00:28:58.707Z,93698.63
2023-05-16T00:31:25.484Z,93689.69
2023-05-16T00:33:52.282Z,93697.38
2023-05-16T00:36:19.132Z,93698.97
2023-05-16T00:38:45.878Z,93698.19
2023-05-16T00:41:12.621Z,93704.47
2023-05-16T00:43:39.889Z,93695.16
2023-05-16T00:46:06.777Z,93694.09
2023-05-16T00:48:33.907Z,93702.47
2023-05-16T00:51:01.627Z,93695.69
2023-05-16T00:53:28.455Z,93697.97
2023-05-16T00:55:56.697Z,93701.44
2023-05-16T00:58:23.540Z,93697.47
2023-05-16T01:00:50.225Z,93699.06
2023-05-16T01:03:17.246Z,93704.16
2023-05-16T01:05:44.403Z,93709.34
2023-05-16T01:08:11.276Z,93710.72
2023-05-16T01:10:45.005Z,93711.72
2023-05-16T01:13:59.910Z,93707.75
2023-05-16T01:17:03.969Z,93695.69
2023-05-16T01:20:00.926Z,93690.19
2023-05-16T01:22:43.071Z,93684.88
2023-05-16T01:25:34.942Z,93678.31
2023-05-16T01:28:03.322Z,93674.72
2023-05-16T01:30:35.334Z,93676.28
2023-05-16T01:33:02.096Z,93667.72
2023-05-16T01:35:29.267Z,93665.34
2023-05-16T01:38:05.950Z,93665.22
2023-05-16T01:40:50.571Z,93673.34
2023-05-16T01:43:20.523Z,93671.19
2023-05-16T01:45:56.419Z,93670.97
2023-05-16T01:48:24.282Z,93682.38
2023-05-16T01:50:56.059Z,93691.16
2023-05-16T01:53:27.631Z,93683.16
2023-05-16T01:55:57.438Z,93677.63
2023-05-16T01:58:26.766Z,93684.53
2023-05-16T02:00:54.187Z,93682.06
2023-05-16T02:03:21.051Z,93686.66
2023-05-16T02:05:47.830Z,93691.06
2023-05-16T02:08:14.841Z,93689.03
2023-05-16T02:10:41.697Z,93687.03
2023-05-16T02:13:08.407Z,93680.13
2023-05-16T02:15:35.128Z,93670.44
2023-05-16T02:18:01.929Z,93678.44
2023-05-16T02:20:28.799Z,93674.63
2023-05-16T02:22:56.001Z,93672.34
2023-05-16T02:25:22.760Z,93665.66
2023-05-16T02:27:49.577Z,93663.44
2023-05-16T02:30:16.409Z,93667.50
2023-05-16T02:32:45.331Z,93670.66
2023-05-16T02:35:12.538Z,93670.31
2023-05-16T02:37:40.359Z,93670.31
2023-05-16T02:40:08.093Z,93668.38
2023-05-16T02:42:34.841Z,93663.91
2023-05-16T02:45:01.741Z,93665.47
2023-05-16T02:47:28.482Z,93659.06
2023-05-16T02:49:55.243Z,93659.28
2023-05-16T02:52:21.987Z,93666.06
2023-05-16T02:54:56.093Z,93662.44
2023-05-16T02:57:26.989Z,93655.56
2023-05-16T02:59:53.708Z,93644.72
2023-05-16T03:02:20.562Z,93635.69
2023-05-16T03:04:47.351Z,93635.25
2023-05-16T03:07:14.189Z,93616.44
2023-05-16T03:09:41.056Z,93605.38
2023-05-16T03:12:07.972Z,93609.66
2023-05-16T03:14:34.688Z,93609.09
2023-05-16T03:17:01.473Z,93623.06
2023-05-16T03:19:28.222Z,93633.53
2023-05-16T03:21:55.523Z,93628.59
2023-05-16T03:24:23.218Z,93638.94
2023-05-16T03:26:50.113Z,93635.50
2023-05-16T03:29:16.809Z,93631.97
2023-05-16T03:31:43.657Z,93629.16
2023-05-16T03:34:10.443Z,93630.94
2023-05-16T03:36:38.946Z,93639.22
2023-05-16T03:39:05.694Z,93648.00
2023-05-16T03:41:32.421Z,93638.50
2023-05-16T03:43:59.195Z,93625.91
2023-05-16T03:46:26.217Z,93623.97
2023-05-16T03:48:52.959Z,93640.44
2023-05-16T03:51:19.759Z,93622.94
2023-05-16T03:53:46.584Z,93624.00
2023-05-16T03:56:13.441Z,93624.00
2023-05-16T03:58:40.234Z,93620.38
2023-05-16T04:01:06.953Z,93625.13
2023-05-16T04:03:33.811Z,93635.94
2023-05-16T04:06:00.901Z,93642.72
2023-05-16T04:08:27.810Z,93652.38
2023-05-16T04:10:54.728Z,93641.00
2023-05-16T04:13:21.615Z,93633.34
2023-05-16T04:15:48.341Z,93619.47
2023-05-16T04:18:15.174Z,93623.88
2023-05-16T04:20:47.702Z,93610.75
2023-05-16T04:23:14.723Z,93603.88
2023-05-16T04:25:42.125Z,93589.34
2023-05-16T04:28:08.885Z,93572.53
2023-05-16T04:30:35.602Z,93581.44
2023-05-16T04:33:02.972Z,93582.19
2023-05-16T04:35:29.835Z,93588.25
2023-05-16T04:37:57.005Z,93577.13
2023-05-16T04:40:25.402Z,93589.13
2023-05-16T04:42:53.569Z,93575.50
2023-05-16T04:45:21.162Z,93561.94
2023-05-16T04:47:47.881Z,93566.91
2023-05-16T04:50:16.044Z,93592.09
2023-05-16T04:52:42.664Z,93610.81
2023-05-16T04:55:11.139Z,93616.47
2023-05-16T04:57:37.995Z,93619.28
2023-05-16T05:00:08.321Z,93609.69
2023-05-16T05:02:35.261Z,93606.44
2023-05-16T05:05:02.050Z,93610.69
2023-05-16T05:07:29.375Z,93605.72
2023-05-16T05:09:56.255Z,93608.81
2023-05-16T05:12:23.117Z,93615.66
2023-05-16T05:14:49.936Z,93615.88
2023-05-16T05:17:17.865Z,93610.34
2023-05-16T05:19:44.649Z,93605.59
2023-05-16T05:22:12.157Z,93608.09
2023-05-16T05:24:38.904Z,93598.94
2023-05-16T05:27:05.916Z,93612.72
2023-05-16T05:29:32.723Z,93611.03
2023-05-16T05:31:59.741Z,93620.28
2023-05-16T05:34:26.512Z,93613.63
2023-05-16T05:36:53.252Z,93614.22
2023-05-16T05:39:19.842Z,93614.66
2023-05-16T05:41:46.706Z,93613.06
2023-05-16T05:44:13.541Z,93612.38
2023-05-16T05:46:40.455Z,93617.28
2023-05-16T05:49:07.211Z,93615.88
2023-05-16T05:51:33.960Z,93618.47
2023-05-16T05:54:01.822Z,93615.88
2023-05-16T05:56:28.669Z,93617.22
2023-05-16T05:58:55.567Z,93606.84
2023-05-16T06:01:22.428Z,93608.97
2023-05-16T06:03:49.221Z,93602.09
2023-05-16T06:06:16.005Z,93610.34
2023-05-16T06:08:42.809Z,93609.22
2023-05-16T06:11:09.585Z,93611.25
2023-05-16T06:13:36.510Z,93609.44
2023-05-16T06:16:03.506Z,93612.38
2023-05-16T06:18:30.332Z,93612.38
2023-05-16T06:20:57.110Z,93612.69
2023-05-16T06:23:23.836Z,93618.91
2023-05-16T06:25:51.079Z,93619.47
2023-05-16T06:28:17.868Z,93626.81
2023-05-16T06:30:44.692Z,93629.06
2023-05-16T06:33:11.513Z,93617.56
2023-05-16T06:35:38.645Z,93614.28
2023-05-16T06:38:05.315Z,93613.50
2023-05-16T06:40:32.093Z,93616.25
2023-05-16T06:42:58.990Z,93615.34
2023-05-16T06:45:26.205Z,93615.19
2023-05-16T06:47:55.239Z,93607.72
2023-05-16T06:50:23.524Z,93597.66
2023-05-16T06:52:50.157Z,93604.63
2023-05-16T06:55:17.144Z,93608.47
2023-05-16T06:57:43.875Z,93600.97
2023-05-16T07:00:11.041Z,93607.38
2023-05-16T07:02:37.814Z,93608.16
2023-05-16T07:05:04.901Z,93606.03
2023-05-16T07:07:31.932Z,93595.50
2023-05-16T07:09:58.782Z,93598.25
2023-05-16T07:12:25.554Z,93605.81
2023-05-16T07:14:52.572Z,93607.56
2023-05-16T07:17:19.355Z,93612.03
2023-05-16T07:19:46.226Z,93616.78
2023-05-16T07:22:12.940Z,93623.00
2023-05-16T07:24:39.961Z,93619.47
2023-05-16T07:27:07.108Z,93615.66
2023-05-16T07:29:34.056Z,93614.56
2023-05-16T07:32:01.183Z,93621.19
2023-05-16T07:34:28.134Z,93623.00
2023-05-16T07:36:54.976Z,93631.88
2023-05-16T07:39:21.751Z,93633.28
2023-05-16T07:41:48.568Z,93633.22
2023-05-16T07:44:15.364Z,93638.44
2023-05-16T07:46:45.008Z,93634.88
2023-05-16T07:49:12.079Z,93632.84
2023-05-16T07:51:38.914Z,93628.75
2023-05-16T07:54:05.842Z,93633.38
2023-05-16T07:56:33.263Z,93629.22
2023-05-16T07:59:00.341Z,93627.97
2023-05-16T08:01:27.164Z,93617.09
2023-05-16T08:03:54.047Z,93627.31
2023-05-16T08:06:20.860Z,93619.25
2023-05-16T08:08:47.662Z,93619.03
2023-05-16T08:11:15.338Z,93605.16
2023-05-16T08:13:42.263Z,93605.03
2023-05-16T08:16:09.238Z,93593.38
2023-05-16T08:18:36.121Z,93598.09
2023-05-16T08:21:03.091Z,93592.34
2023-05-16T08:23:29.831Z,93595.97
2023-05-16T08:25:56.782Z,93595.66
2023-05-16T08:28:23.582Z,93599.34
2023-05-16T08:30:50.595Z,93594.84
2023-05-16T08:33:17.564Z,93589.28
2023-05-16T08:35:45.023Z,93581.75
2023-05-16T08:38:11.927Z,93576.56
2023-05-16T08:40:40.314Z,93577.69
2023-05-16T08:43:07.592Z,93571.00
2023-05-16T08:45:34.866Z,93559.66
2023-05-16T08:48:02.205Z,93565.31
2023-05-16T08:50:31.874Z,93568.47
2023-05-16T08:52:58.773Z,93566.09
2023-05-16T08:55:27.539Z,93553.91
2023-05-16T08:57:54.715Z,93565.69
2023-05-16T09:00:22.894Z,93567.44
2023-05-16T09:02:50.285Z,93568.63
2023-05-16T09:05:17.753Z,93577.22
2023-05-16T09:07:45.415Z,93570.59
2023-05-16T09:10:13.438Z,93570.28
2023-05-16T09:12:42.095Z,93571.31
2023-05-16T09:15:10.900Z,93578.16
2023-05-16T09:17:43.396Z,93583.66
2023-05-16T09:20:15.221Z,93578.16
2023-05-16T09:22:54.973Z,93588.72
2023-05-16T09:25:30.137Z,93591.78
2023-05-16T09:28:00.301Z,93605.72
2023-05-16T09:30:31.934Z,93608.25
2023-05-16T09:32:59.620Z,93605.94
2023-05-16T09:37:56.988Z,93616.44
2023-05-16T09:40:24.381Z,93615.78
2023-05-16T09:43:04.904Z,93625.66
2023-05-16T09:45:32.754Z,93611.06
2023-05-16T09:48:03.312Z,93618.16
2023-05-16T09:50:30.315Z,93626.59
2023-05-16T09:52:57.206Z,93615.50
2023-05-16T09:55:24.107Z,93614.06
2023-05-16T09:57:51.052Z,93628.31
2023-05-16T10:00:18.586Z,93627.47
2023-05-16T10:02:46.141Z,93640.31
2023-05-16T10:05:13.061Z,93636.91
2023-05-16T10:07:40.216Z,93640.63
2023-05-16T10:10:08.535Z,93638.03
2023-05-16T10:12:35.701Z,93630.09
2023-05-16T10:15:03.882Z,93611.56
2023-05-16T10:17:39.681Z,93612.22
2023-05-16T10:20:08.273Z,93621.59
2023-05-16T10:22:36.098Z,93620.47
2023-05-16T10:25:28.110Z,93629.91
2023-05-16T10:27:55.714Z,93618.91
2023-05-16T10:30:22.593Z,93619.53
2023-05-16T10:32:50.635Z,93623.88
2023-05-16T10:35:17.723Z,93629.63
2023-05-16T10:37:44.687Z,93629.16
2023-05-16T10:40:12.234Z,93651.22
2023-05-16T10:42:39.120Z,93646.06
2023-05-16T10:45:19.814Z,93644.66
2023-05-16T10:47:59.641Z,93652.31
2023-05-16T10:50:45.831Z,93637.22
2023-05-16T10:53:21.850Z,93638.91
2023-05-16T10:56:07.340Z,93635.09
2023-05-16T10:58:40.688Z,93638.25
2023-05-16T11:01:29.508Z,93637.63
2023-05-16T11:04:02.218Z,93642.88
2023-05-16T11:06:32.430Z,93644.72
2023-05-16T11:09:11.475Z,93636.91
2023-05-16T11:11:53.726Z,93638.59
2023-05-16T11:14:26.338Z,93636.16
2023-05-16T11:17:03.746Z,93639.94
2023-05-16T11:19:50.249Z,93635.28
2023-05-16T11:22:20.678Z,93638.00
2023-05-16T11:25:01.449Z,93639.84
2023-05-16T11:27:28.293Z,93628.75
2023-05-16T11:30:01.865Z,93622.94
2023-05-16T11:32:30.009Z,93608.63
2023-05-16T11:34:58.598Z,93599.53
2023-05-16T11:37:25.614Z,93598.88
2023-05-16T11:39:52.481Z,93602.59
2023-05-16T11:42:19.437Z,93603.19
2023-05-16T11:44:46.441Z,93590.16
2023-05-16T11:47:13.825Z,93587.13
2023-05-16T11:49:41.619Z,93580.81
2023-05-16T11:52:08.699Z,93585.72
2023-05-16T11:54:35.640Z,93584.88
2023-05-16T11:57:03.372Z,93593.06
2023-05-16T11:59:30.299Z,93603.47
2023-05-16T12:01:57.252Z,93605.38
2023-05-16T12:04:24.321Z,93598.09
2023-05-16T12:07:00.806Z,93584.16
2023-05-16T12:09:27.937Z,93584.50
2023-05-16T12:11:54.851Z,93589.84
2023-05-16T12:14:21.804Z,93587.06
2023-05-16T12:16:49.564Z,93590.22
2023-05-16T12:19:16.869Z,93579.50
2023-05-16T12:21:43.794Z,93573.22
2023-05-16T12:24:13.044Z,93575.25
2023-05-16T12:26:41.370Z,93583.00
2023-05-16T12:29:08.857Z,93587.56
2023-05-16T12:31:41.750Z,93567.41
2023-05-16T12:34:20.675Z,93570.69
2023-05-16T12:36:53.013Z,93584.25
2023-05-16T12:39:20.581Z,93572.34
2023-05-16T12:41:47.495Z,93573.28
2023-05-16T12:44:17.572Z,93567.84
2023-05-16T12:46:46.467Z,93583.53
2023-05-16T12:49:13.896Z,93577.63
2023-05-16T12:51:41.289Z,93588.19
2023-05-16T12:54:12.041Z,93579.53
2023-05-16T12:56:40.263Z,93574.03
2023-05-16T12:59:07.623Z,93565.44
2023-05-16T13:01:35.780Z,93552.00
2023-05-16T13:04:03.170Z,93558.22
2023-05-16T13:06:36.997Z,93548.63
2023-05-16T13:09:16.545Z,93542.69
2023-05-16T13:11:43.341Z,93538.88
2023-05-16T13:14:10.220Z,93550.34
2023-05-16T13:16:37.087Z,93555.81
2023-05-16T13:19:05.484Z,93548.75
2023-05-16T13:21:32.461Z,93546.94
2023-05-16T13:23:59.655Z,93554.69
2023-05-16T13:26:27.498Z,93557.88
2023-05-16T13:28:55.342Z,93560.72
2023-05-16T13:31:22.853Z,93553.63
2023-05-16T13:33:49.742Z,93557.38
2023-05-16T13:36:16.544Z,93560.38
2023-05-16T13:38:43.538Z,93551.06
2023-05-16T13:41:10.390Z,93550.03
2023-05-16T13:43:37.322Z,93556.09
2023-05-16T13:46:04.232Z,93559.72
2023-05-16T13:48:31.105Z,93554.97
2023-05-16T13:50:57.894Z,93553.22
2023-05-16T13:53:24.710Z,93559.19
2023-05-16T13:55:51.499Z,93559.72
2023-05-16T13:58:18.344Z,93555.09
2023-05-16T14:00:46.193Z,93549.63
2023-05-16T14:03:13.502Z,93539.78
2023-05-16T14:05:40.790Z,93533.56
2023-05-16T14:08:07.996Z,93529.50
2023-05-16T14:10:34.773Z,93524.78
2023-05-16T14:13:01.671Z,93526.66
2023-05-16T14:15:28.740Z,93533.63
2023-05-16T14:17:55.839Z,93534.06
2023-05-16T14:20:23.190Z,93543.78
2023-05-16T14:22:49.983Z,93543.13
2023-05-16T14:25:16.854Z,93535.78
2023-05-16T14:27:43.884Z,93533.91
2023-05-16T14:30:11.205Z,93548.31
2023-05-16T14:32:38.152Z,93542.34
2023-05-16T14:35:05.517Z,93539.72
2023-05-16T14:37:32.626Z,93531.34
2023-05-16T14:40:00.975Z,93534.97
2023-05-16T14:42:27.956Z,93529.41
2023-05-16T14:44:54.746Z,93528.97
2023-05-16T14:47:21.645Z,93520.16
2023-05-16T14:49:48.419Z,93512.09
2023-05-16T14:52:15.231Z,93511.09
2023-05-16T14:54:41.988Z,93519.69
2023-05-16T14:57:08.816Z,93519.91
2023-05-16T14:59:35.772Z,93518.69
2023-05-16T15:02:02.929Z,93523.31
2023-05-16T15:04:29.810Z,93524.09
2023-05-16T15:06:56.721Z,93530.34
2023-05-16T15:09:23.550Z,93529.56
2023-05-16T15:11:50.430Z,93519.38
2023-05-16T15:14:17.308Z,93518.28
2023-05-16T15:16:44.330Z,93502.84
2023-05-16T15:19:11.483Z,93533.66
2023-05-16T15:21:38.446Z,93533.59
2023-05-16T15:24:05.719Z,93531.53
2023-05-16T15:26:32.942Z,93540.44
2023-05-16T15:28:59.844Z,93536.50
2023-05-16T15:31:27.184Z,93535.19
2023-05-16T15:33:54.179Z,93537.47
2023-05-16T15:36:21.171Z,93539.94
2023-05-16T15:38:47.995Z,93545.38
2023-05-16T15:41:31.895Z,93542.47
2023-05-16T15:44:02.881Z,93546.81
2023-05-16T15:46:33.003Z,93552.34
2023-05-16T15:49:00.120Z,93550.38
2023-05-16T15:51:26.889Z,93556.84
2023-05-16T15:53:53.668Z,93559.44
2023-05-16T15:56:21.654Z,93553.31
2023-05-16T15:58:48.582Z,93549.31
2023-05-16T16:01:16.693Z,93544.91
2023-05-16T16:03:43.784Z,93545.91
2023-05-16T16:06:10.811Z,93543.00
2023-05-16T16:08:37.706Z,93544.81
2023-05-16T16:11:05.513Z,93553.09
2023-05-16T16:13:32.784Z,93554.13
2023-05-16T16:15:59.836Z,93566.00
2023-05-16T16:18:26.713Z,93552.56
2023-05-16T16:20:53.989Z,93562.72
2023-05-16T16:23:21.832Z,93559.56
2023-05-16T16:25:48.595Z,93568.06
2023-05-16T16:28:15.851Z,93569.41
2023-05-16T16:30:44.297Z,93569.03
2023-05-16T16:33:11.424Z,93570.91
2023-05-16T16:35:38.310Z,93574.13
2023-05-16T16:38:07.201Z,93566.47
2023-05-16T16:40:34.665Z,93580.03
2023-05-16T16:43:01.762Z,93575.28
2023-05-16T16:45:28.849Z,93583.63
2023-05-16T16:47:56.094Z,93586.13
2023-05-16T16:50:23.022Z,93591.34
2023-05-16T16:52:49.828Z,93585.69
2023-05-16T16:55:16.831Z,93586.38
2023-05-16T16:57:43.757Z,93596.75
2023-05-16T17:00:11.617Z,93592.22
2023-05-16T17:02:38.605Z,93599.47
2023-05-16T17:05:06.846Z,93598.44
2023-05-16T17:07:34.037Z,93601.50
2023-05-16T17:10:01.247Z,93614.16
2023-05-16T17:12:28.981Z,93614.03
2023-05-16T17:14:58.902Z,93618.91
2023-05-16T17:17:26.243Z,93623.13
2023-05-16T17:19:53.121Z,93618.97
2023-05-16T17:22:21.535Z,93614.88
2023-05-16T17:24:48.449Z,93615.56
2023-05-16T17:27:15.534Z,93608.78
2023-05-16T17:29:42.725Z,93605.75
2023-05-16T17:32:09.606Z,93609.34
2023-05-16T17:34:36.651Z,93609.03
2023-05-16T17:37:06.245Z,93611.06
2023-05-16T17:39:34.263Z,93601.53
2023-05-16T17:42:01.091Z,93612.03
2023-05-16T17:44:27.940Z,93609.56
2023-05-16T17:46:54.856Z,93606.50
2023-05-16T17:49:21.912Z,93605.94
2023-05-16T17:51:50.453Z,93611.25
2023-05-16T17:54:18.709Z,93607.63
2023-05-16T17:56:46.836Z,93611.91
2023-05-16T17:59:14.049Z,93607.16
2023-05-16T18:01:41.424Z,93620.25
2023-05-16T18:04:08.740Z,93617.56
2023-05-16T18:06:37.767Z,93617.09
2023-05-16T18:09:10.519Z,93619.47
2023-05-16T18:11:40.710Z,93621.28
2023-05-16T18:14:11.713Z,93625.34
2023-05-16T18:16:38.805Z,93615.41
2023-05-16T18:19:06.128Z,93621.28
2023-05-16T18:21:34.082Z,93627.16
2023-05-16T18:24:00.953Z,93626.38
2023-05-16T18:26:28.926Z,93632.34
2023-05-16T18:28:56.132Z,93623.78
2023-05-16T18:31:22.996Z,93623.22
2023-05-16T18:33:50.198Z,93629.97
2023-05-16T18:36:17.077Z,93637.09
2023-05-16T18:38:43.939Z,93624.34
2023-05-16T18:41:10.998Z,93624.69
2023-05-16T18:43:37.853Z,93629.22
2023-05-16T18:46:04.759Z,93625.03
2023-05-16T18:48:32.468Z,93628.09
2023-05-16T18:51:00.930Z,93632.72
2023-05-16T18:53:27.785Z,93629.09
2023-05-16T18:55:54.790Z,93629.22
2023-05-16T18:58:21.851Z,93630.78
2023-05-16T19:00:48.843Z,93631.59
2023-05-16T19:03:15.919Z,93649.41
2023-05-16T19:05:43.152Z,93633.88
2023-05-16T19:08:10.369Z,93645.50
2023-05-16T19:10:38.698Z,93650.91
2023-05-16T19:13:08.957Z,93651.69
2023-05-16T19:15:36.524Z,93654.75
2023-05-16T19:18:04.964Z,93655.09
2023-05-16T19:20:33.723Z,93652.50
2023-05-16T19:23:01.143Z,93655.31
2023-05-16T19:25:28.257Z,93655.88
2023-05-16T19:27:55.156Z,93652.56
2023-05-16T19:30:23.507Z,93659.72
2023-05-16T19:32:51.759Z,93655.78
2023-05-16T19:35:19.758Z,93658.47
2023-05-16T19:37:46.648Z,93658.69
2023-05-16T19:40:16.336Z,93669.66
2023-05-16T19:42:44.127Z,93665.25
2023-05-16T19:45:11.282Z,93670.09
2023-05-16T19:47:38.194Z,93674.06
2023-05-16T19:50:05.733Z,93672.47
2023-05-16T19:52:32.644Z,93668.84
2023-05-16T19:54:59.501Z,93679.56
2023-05-16T19:57:26.295Z,93681.34
2023-05-16T19:59:53.196Z,93681.50
2023-05-16T20:02:21.237Z,93687.81
2023-05-16T20:04:50.572Z,93684.66
2023-05-16T20:07:17.481Z,93686.69
2023-05-16T20:09:44.444Z,93688.72
2023-05-16T20:12:12.817Z,93692.44
2023-05-16T20:14:39.860Z,93688.59
2023-05-16T20:17:08.347Z,93695.38
2023-05-16T20:19:36.592Z,93697.19
2023-05-16T20:22:03.721Z,93699.44
2023-05-16T20:24:30.468Z,93702.25
2023-05-16T20:26:57.241Z,93695.03
2023-05-16T20:29:24.078Z,93696.94
2023-05-16T20:31:50.785Z,93691.41
2023-05-16T20:34:17.562Z,93699.13
2023-05-16T20:36:44.344Z,93703.50
2023-05-16T20:39:11.255Z,93699.44
2023-05-16T20:41:38.064Z,93701.69
2023-05-16T20:44:06.213Z,93699.88
2023-05-16T20:46:33.291Z,93707.13
2023-05-16T20:49:00.287Z,93701.81
2023-05-16T20:51:27.117Z,93704.31
2023-05-16T20:53:53.790Z,93693.56
2023-05-16T20:56:21.000Z,93706.44
2023-05-16T20:58:47.759Z,93707.22
2023-05-16T21:01:14.488Z,93704.63
2023-05-16T21:03:41.415Z,93708.00
2023-05-16T21:06:08.286Z,93713.56
2023-05-16T21:08:35.048Z,93712.19
2023-05-16T21:11:01.870Z,93714.44
2023-05-16T21:13:29.063Z,93709.47
2023-05-16T21:15:55.807Z,93720.19
2023-05-16T21:18:22.838Z,93714.44
2023-05-16T21:20:49.775Z,93712.06
2023-05-16T21:23:16.630Z,93719.28
2023-05-16T21:25:43.397Z,93715.25
2023-05-16T21:28:10.241Z,93721.78
2023-05-16T21:30:37.042Z,93724.47
2023-05-16T21:33:04.066Z,93725.94
2023-05-16T21:35:31.222Z,93734.84
2023-05-16T21:37:58.063Z,93727.63
2023-05-16T21:40:28.990Z,93713.75
2023-05-16T21:42:55.908Z,93719.38
2023-05-16T21:45:22.686Z,93735.06
2023-05-16T21:47:49.641Z,93737.53
2023-05-16T21:50:17.806Z,93742.38
2023-05-16T21:52:44.606Z,93742.84
2023-05-16T21:55:11.413Z,93743.28
2023-05-16T21:57:38.266Z,93744.94
2023-05-16T22:00:09.361Z,93737.97
2023-05-16T22:02:37.243Z,93735.38
2023-05-16T22:05:04.888Z,93750.78
2023-05-16T22:07:32.051Z,93741.44
2023-05-16T22:09:59.176Z,93737.59
2023-05-16T22:12:27.076Z,93742.34
2023-05-16T22:14:54.431Z,93742.44
2023-05-16T22:17:21.414Z,93745.25
2023-05-16T22:19:48.408Z,93746.28
2023-05-16T22:22:15.467Z,93739.16
2023-05-16T22:24:42.253Z,93745.31
2023-05-16T22:27:09.141Z,93748.38
2023-05-16T22:29:38.412Z,93752.19
2023-05-16T22:32:07.196Z,93751.03
2023-05-16T22:34:34.705Z,93750.16
2023-05-16T22:37:01.701Z,93761.84
2023-05-16T22:39:28.725Z,93759.81
2023-05-16T22:41:55.725Z,93760.97
2023-05-16T22:44:22.460Z,93758.66
2023-05-16T22:46:49.399Z,93762.28
2023-05-16T22:49:16.636Z,93761.63
2023-05-16T22:51:43.396Z,93753.63
2023-05-16T22:54:10.165Z,93768.88
2023-05-16T22:56:36.850Z,93764.81
2023-05-16T22:59:03.604Z,93773.94
2023-05-16T23:01:30.583Z,93767.31
2023-05-16T23:03:57.571Z,93767.38
2023-05-16T23:06:24.420Z,93768.59
2023-05-16T23:08:51.318Z,93770.03
2023-05-16T23:11:19.825Z,93768.16
2023-05-16T23:13:46.760Z,93762.78
2023-05-16T23:16:13.537Z,93767.75
2023-05-16T23:18:40.781Z,93773.81
2023-05-16T23:21:08.219Z,93777.44
2023-05-16T23:23:35.039Z,93776.09
2023-05-16T23:26:01.787Z,93783.94
2023-05-16T23:28:28.585Z,93761.00
2023-05-16T23:30:55.497Z,93781.91
2023-05-16T23:33:22.321Z,93788.31
2023-05-16T23:35:49.146Z,93788.13
2023-05-16T23:38:16.133Z,93793.28
2023-05-16T23:40:42.908Z,93786.09
2023-05-16T23:43:09.679Z,93790.91
2023-05-16T23:45:36.512Z,93788.41
2023-05-16T23:48:03.906Z,93788.41
2023-05-16T23:50:30.738Z,93779.53
2023-05-16T23:52:57.529Z,93787.19
2023-05-16T23:55:24.427Z,93794.03
2023-05-16T23:57:51.218Z,93790.88
